createdAt,value
2017-12-16T00:01:40.822Z,1.70
2017-12-16T00:04:09.062Z,1.95
2017-12-16T00:06:36.580Z,2.08
2017-12-16T00:09:04.248Z,2.37
2017-12-16T00:11:31.862Z,4.15
2017-12-16T00:13:59.330Z,2.08
2017-12-16T00:16:27.589Z,1.92
2017-12-16T00:18:55.831Z,2.42
2017-12-16T00:21:23.329Z,1.85
2017-12-16T00:23:51.583Z,1.77
2017-12-16T00:26:19.991Z,1.98
2017-12-16T00:28:48.402Z,1.83
2017-12-16T00:31:16.057Z,1.70
2017-12-16T00:33:43.765Z,2.28
2017-12-16T00:36:11.410Z,2.17
2017-12-16T00:38:38.930Z,2.10
2017-12-16T00:41:06.416Z,1.80
2017-12-16T00:43:33.880Z,1.40
2017-12-16T00:46:02.126Z,1.80
2017-12-16T00:48:29.617Z,1.65
2017-12-16T00:50:57.177Z,1.70
2017-12-16T00:53:24.647Z,1.52
2017-12-16T00:55:52.123Z,1.80
2017-12-16T00:58:20.387Z,1.50
2017-12-16T01:00:47.863Z,1.60
2017-12-16T01:03:16.135Z,1.45
2017-12-16T01:05:44.378Z,1.80
2017-12-16T01:08:12.074Z,1.80
2017-12-16T01:10:40.564Z,1.70
2017-12-16T01:13:08.882Z,1.85
2017-12-16T01:15:36.420Z,2.15
2017-12-16T01:18:03.894Z,1.85
2017-12-16T01:20:31.387Z,1.60
2017-12-16T01:22:58.887Z,2.20
2017-12-16T01:25:26.497Z,2.05
2017-12-16T01:27:54.614Z,1.90
2017-12-16T01:30:22.361Z,1.50
2017-12-16T01:32:49.963Z,1.60
2017-12-16T01:35:29.417Z,1.65
2017-12-16T01:38:09.136Z,1.67
2017-12-16T01:40:36.605Z,2.10
2017-12-16T01:43:04.119Z,1.83
2017-12-16T01:45:32.364Z,1.65
2017-12-16T01:47:59.845Z,1.83
2017-12-16T01:50:28.106Z,1.90
2017-12-16T01:52:56.354Z,1.92
2017-12-16T01:55:24.049Z,1.98
2017-12-16T01:57:52.521Z,2.25
2017-12-16T02:00:20.839Z,1.95
2017-12-16T02:02:48.432Z,1.73
2017-12-16T02:05:15.930Z,1.83
2017-12-16T02:07:44.169Z,1.90
2017-12-16T02:10:12.531Z,1.90
2017-12-16T02:12:40.029Z,1.80
2017-12-16T02:15:07.704Z,1.65
2017-12-16T02:17:36.030Z,1.95
2017-12-16T02:20:03.599Z,1.80
2017-12-16T02:22:31.122Z,1.40
2017-12-16T02:24:58.586Z,1.33
2017-12-16T02:27:26.070Z,1.48
2017-12-16T02:29:53.551Z,1.60
2017-12-16T02:32:21.802Z,1.70
2017-12-16T02:34:49.436Z,1.52
2017-12-16T02:37:17.008Z,1.10
2017-12-16T02:39:44.503Z,1.37
2017-12-16T02:42:12.782Z,1.58
2017-12-16T02:44:40.267Z,1.30
2017-12-16T02:47:07.729Z,1.58
2017-12-16T02:49:35.202Z,1.48
2017-12-16T02:52:02.707Z,1.40
2017-12-16T02:54:30.306Z,1.40
2017-12-16T02:56:57.775Z,1.33
2017-12-16T02:59:25.258Z,1.33
2017-12-16T03:01:52.738Z,1.35
2017-12-16T03:04:20.990Z,1.20
2017-12-16T03:06:48.505Z,1.48
2017-12-16T03:09:16.029Z,1.60
2017-12-16T03:11:43.585Z,1.50
2017-12-16T03:14:11.051Z,1.70
2017-12-16T03:16:39.314Z,1.25
2017-12-16T03:19:06.793Z,1.80
2017-12-16T03:21:35.102Z,1.60
2017-12-16T03:24:02.774Z,1.50
2017-12-16T03:26:30.524Z,1.30
2017-12-16T03:28:58.162Z,1.70
2017-12-16T03:31:26.508Z,1.70
2017-12-16T03:33:54.803Z,1.60
2017-12-16T03:36:23.046Z,1.50
2017-12-16T03:38:50.526Z,1.00
2017-12-16T03:41:19.279Z,1.50
2017-12-16T03:43:46.758Z,1.20
2017-12-16T03:46:14.274Z,1.35
2017-12-16T03:48:41.887Z,1.40
2017-12-16T03:51:10.140Z,1.30
2017-12-16T03:53:37.642Z,1.83
2017-12-16T03:56:05.110Z,1.20
2017-12-16T03:58:32.607Z,1.40
2017-12-16T04:01:00.097Z,1.50
2017-12-16T04:03:28.343Z,1.60
2017-12-16T04:05:55.834Z,1.70
2017-12-16T04:08:24.195Z,1.30
2017-12-16T04:10:51.869Z,1.30
2017-12-16T04:13:19.339Z,1.30
2017-12-16T04:15:47.588Z,1.55
2017-12-16T04:18:15.838Z,1.30
2017-12-16T04:20:44.101Z,1.10
2017-12-16T04:23:11.566Z,1.52
2017-12-16T04:25:39.228Z,1.33
2017-12-16T04:28:07.406Z,1.50
2017-12-16T04:30:35.066Z,1.50
2017-12-16T04:33:02.595Z,1.30
2017-12-16T04:35:30.126Z,1.27
2017-12-16T04:37:57.557Z,1.45
2017-12-16T04:40:25.026Z,1.35
2017-12-16T04:42:53.286Z,1.40
2017-12-16T04:45:20.775Z,1.40
2017-12-16T04:47:48.305Z,1.60
2017-12-16T04:50:15.782Z,1.40
2017-12-16T04:52:44.023Z,1.60
2017-12-16T04:55:11.506Z,1.60
2017-12-16T04:57:39.738Z,1.80
2017-12-16T05:00:07.315Z,1.73
2017-12-16T05:02:34.966Z,1.50
2017-12-16T05:05:02.499Z,1.65
2017-12-16T05:07:29.993Z,1.85
2017-12-16T05:09:57.462Z,1.55
2017-12-16T05:12:24.951Z,1.80
2017-12-16T05:14:52.636Z,1.45
2017-12-16T05:17:20.502Z,1.85
2017-12-16T05:19:47.985Z,1.50
2017-12-16T05:22:15.489Z,2.00
2017-12-16T05:24:42.978Z,2.10
2017-12-16T05:27:10.462Z,1.73
2017-12-16T05:29:37.967Z,1.80
2017-12-16T05:32:05.475Z,1.70
2017-12-16T05:34:33.036Z,1.90
2017-12-16T05:37:00.501Z,1.58
2017-12-16T05:39:27.978Z,2.12
2017-12-16T05:41:56.220Z,2.03
2017-12-16T05:44:23.727Z,2.10
2017-12-16T05:46:52.090Z,1.90
2017-12-16T05:49:20.554Z,1.90
2017-12-16T05:51:48.101Z,2.10
2017-12-16T05:54:15.676Z,1.73
2017-12-16T05:56:43.142Z,2.17
2017-12-16T05:59:11.408Z,1.70
2017-12-16T06:01:38.890Z,1.80
2017-12-16T06:04:06.884Z,2.40
2017-12-16T06:06:34.491Z,2.00
2017-12-16T06:09:02.327Z,2.20
2017-12-16T06:11:29.854Z,2.12
2017-12-16T06:13:58.132Z,2.30
2017-12-16T06:16:25.603Z,2.47
2017-12-16T06:18:53.074Z,2.80
2017-12-16T06:21:20.566Z,2.30
2017-12-16T06:23:48.949Z,2.25
2017-12-16T06:26:17.232Z,2.50
2017-12-16T06:28:45.482Z,2.40
2017-12-16T06:31:13.030Z,2.50
2017-12-16T06:33:40.502Z,2.20
2017-12-16T06:36:07.988Z,2.55
2017-12-16T06:38:35.471Z,2.40
2017-12-16T06:41:03.062Z,2.12
2017-12-16T06:43:30.767Z,2.20
2017-12-16T06:45:58.275Z,2.47
2017-12-16T06:48:25.763Z,2.35
2017-12-16T06:50:53.230Z,2.58
2017-12-16T06:53:21.474Z,2.62
2017-12-16T06:55:48.954Z,2.37
2017-12-16T06:58:17.395Z,2.42
2017-12-16T07:00:45.198Z,2.60
2017-12-16T07:03:13.733Z,2.30
2017-12-16T07:05:41.384Z,2.60
2017-12-16T07:08:08.924Z,2.50
2017-12-16T07:10:36.454Z,2.70
2017-12-16T07:13:04.787Z,2.70
2017-12-16T07:15:32.279Z,2.75
2017-12-16T07:17:59.814Z,2.58
2017-12-16T07:20:27.474Z,2.50
2017-12-16T07:22:55.226Z,2.85
2017-12-16T07:25:22.728Z,2.92
2017-12-16T07:27:50.978Z,3.55
2017-12-16T07:30:18.453Z,3.50
2017-12-16T07:32:45.937Z,2.75
2017-12-16T07:35:13.417Z,2.90
2017-12-16T07:37:41.735Z,3.08
2017-12-16T07:40:09.294Z,3.42
2017-12-16T07:42:36.804Z,2.80
2017-12-16T07:45:04.293Z,2.85
2017-12-16T07:47:31.971Z,3.30
2017-12-16T07:49:59.482Z,2.72
2017-12-16T07:52:26.950Z,3.17
2017-12-16T07:54:54.465Z,2.95
2017-12-16T07:57:21.923Z,3.22
2017-12-16T07:59:50.211Z,3.17
2017-12-16T08:02:17.708Z,2.58
2017-12-16T08:04:46.027Z,3.08
2017-12-16T08:07:14.266Z,3.20
2017-12-16T08:09:41.873Z,3.40
2017-12-16T08:12:09.384Z,3.50
2017-12-16T08:14:36.942Z,3.30
2017-12-16T08:17:04.431Z,3.67
2017-12-16T08:19:33.387Z,3.33
2017-12-16T08:22:00.878Z,3.25
2017-12-16T08:24:28.386Z,3.60
2017-12-16T08:26:55.873Z,3.62
2017-12-16T08:29:23.381Z,3.35
2017-12-16T08:31:50.868Z,3.12
2017-12-16T08:34:18.532Z,3.80
2017-12-16T08:36:46.009Z,3.75
2017-12-16T08:39:13.493Z,4.32
2017-12-16T08:41:41.746Z,4.15
2017-12-16T08:44:09.286Z,3.95
2017-12-16T08:46:36.766Z,4.10
2017-12-16T08:49:04.546Z,5.10
2017-12-16T08:51:32.790Z,5.68
2017-12-16T08:54:00.490Z,7.18
2017-12-16T08:56:28.029Z,8.23
2017-12-16T08:58:55.519Z,10.40
2017-12-16T09:01:23.003Z,8.10
2017-12-16T09:03:50.488Z,9.98
2017-12-16T09:06:18.153Z,6.40
2017-12-16T09:08:45.850Z,7.12
2017-12-16T09:11:14.429Z,6.43
2017-12-16T09:13:42.792Z,5.65
2017-12-16T09:16:11.200Z,5.50
2017-12-16T09:18:38.678Z,5.25
2017-12-16T09:21:06.187Z,5.62
2017-12-16T09:23:34.436Z,6.35
2017-12-16T09:26:01.934Z,5.85
2017-12-16T09:28:29.467Z,5.32
2017-12-16T09:30:57.013Z,5.93
2017-12-16T09:33:24.571Z,6.32
2017-12-16T09:35:52.872Z,4.80
2017-12-16T09:38:20.354Z,6.35
2017-12-16T09:40:47.842Z,5.45
2017-12-16T09:43:15.340Z,4.97
2017-12-16T09:45:43.619Z,6.18
2017-12-16T09:48:11.953Z,7.60
2017-12-16T09:50:39.591Z,6.47
2017-12-16T09:53:07.154Z,5.35
2017-12-16T09:55:34.639Z,5.60
2017-12-16T09:58:02.135Z,4.93
2017-12-16T10:00:30.369Z,5.35
2017-12-16T10:02:57.858Z,4.90
2017-12-16T10:05:26.107Z,5.30
2017-12-16T10:07:53.640Z,4.87
2017-12-16T10:10:21.278Z,5.18
2017-12-16T10:12:49.806Z,4.93
2017-12-16T10:15:17.368Z,5.72
2017-12-16T10:17:44.835Z,6.22
2017-12-16T10:20:12.343Z,6.35
2017-12-16T10:22:39.811Z,4.05
2017-12-16T10:25:07.331Z,5.07
2017-12-16T10:27:35.801Z,5.00
2017-12-16T10:30:04.194Z,5.50
2017-12-16T10:32:31.742Z,4.53
2017-12-16T10:35:00.048Z,4.78
2017-12-16T10:37:27.531Z,4.53
2017-12-16T10:39:55.022Z,4.95
2017-12-16T10:42:22.503Z,4.65
2017-12-16T10:44:49.991Z,3.58
2017-12-16T10:47:17.753Z,4.70
2017-12-16T10:49:45.221Z,4.28
2017-12-16T10:52:12.932Z,4.40
2017-12-16T10:54:41.185Z,6.20
2017-12-16T10:57:08.671Z,5.25
2017-12-16T10:59:36.918Z,4.60
2017-12-16T11:02:05.019Z,6.00
2017-12-16T11:04:34.246Z,7.70
2017-12-16T11:07:11.871Z,9.75
2017-12-16T11:09:39.355Z,9.40
2017-12-16T11:12:07.605Z,9.75
2017-12-16T11:14:35.105Z,9.30
2017-12-16T11:17:03.363Z,10.25
2017-12-16T11:19:31.702Z,9.50
2017-12-16T11:21:59.245Z,9.45
2017-12-16T11:24:26.780Z,9.25
2017-12-16T11:26:54.281Z,10.07
2017-12-16T11:29:21.772Z,8.30
2017-12-16T11:31:50.012Z,9.55
2017-12-16T11:34:17.582Z,8.75
2017-12-16T11:36:55.001Z,8.85
2017-12-16T11:39:23.351Z,8.10
2017-12-16T11:41:50.828Z,9.07
2017-12-16T11:44:19.074Z,9.25
2017-12-16T11:46:46.695Z,8.95
2017-12-16T11:49:14.232Z,8.27
2017-12-16T11:51:42.562Z,6.32
2017-12-16T11:54:10.048Z,7.55
2017-12-16T11:56:37.531Z,9.18
2017-12-16T11:59:05.012Z,7.55
2017-12-16T12:01:32.575Z,7.65
2017-12-16T12:04:01.069Z,7.15
2017-12-16T12:06:29.786Z,6.28
2017-12-16T12:08:57.586Z,6.55
2017-12-16T12:11:25.336Z,6.37
2017-12-16T12:13:53.718Z,6.55
2017-12-16T12:16:22.067Z,6.78
2017-12-16T12:18:49.558Z,5.47
2017-12-16T12:21:18.185Z,5.90
2017-12-16T12:23:45.645Z,4.75
2017-12-16T12:26:13.126Z,5.10
2017-12-16T12:28:41.370Z,5.40
2017-12-16T12:31:08.982Z,5.05
2017-12-16T12:33:37.287Z,5.62
2017-12-16T12:36:04.758Z,6.00
2017-12-16T12:38:32.237Z,5.47
2017-12-16T12:40:59.711Z,6.97
2017-12-16T12:43:27.955Z,5.55
2017-12-16T12:45:55.448Z,5.40
2017-12-16T12:48:23.805Z,4.80
2017-12-16T12:50:51.462Z,4.80
2017-12-16T12:53:19.014Z,5.25
2017-12-16T12:55:46.504Z,4.15
2017-12-16T12:58:14.751Z,5.22
2017-12-16T13:00:42.244Z,4.30
2017-12-16T13:03:10.492Z,4.35
2017-12-16T13:05:38.536Z,5.55
2017-12-16T13:08:06.090Z,4.60
2017-12-16T13:10:33.594Z,3.85
2017-12-16T13:13:01.854Z,3.95
2017-12-16T13:15:30.134Z,4.50
2017-12-16T13:17:59.213Z,4.60
2017-12-16T13:20:26.685Z,3.97
2017-12-16T13:22:54.406Z,4.75
2017-12-16T13:25:21.904Z,4.87
2017-12-16T13:27:49.580Z,5.03
2017-12-16T13:30:17.050Z,5.10
2017-12-16T13:32:44.611Z,4.40
2017-12-16T13:35:12.086Z,4.30
2017-12-16T13:37:39.758Z,3.80
2017-12-16T13:40:07.218Z,4.85
2017-12-16T13:42:34.738Z,4.32
2017-12-16T13:45:02.989Z,4.10
2017-12-16T13:47:30.523Z,4.40
2017-12-16T13:49:58.031Z,4.45
2017-12-16T13:52:26.459Z,5.03
2017-12-16T13:54:53.952Z,5.43
2017-12-16T13:57:21.500Z,5.15
2017-12-16T13:59:48.983Z,4.93
2017-12-16T14:02:17.475Z,4.70
2017-12-16T14:04:45.720Z,4.95
2017-12-16T14:07:13.284Z,5.43
2017-12-16T14:09:40.758Z,7.57
2017-12-16T14:12:08.296Z,6.07
2017-12-16T14:14:36.576Z,5.10
2017-12-16T14:17:04.057Z,4.25
2017-12-16T14:19:31.543Z,4.95
2017-12-16T14:21:59.330Z,4.18
2017-12-16T14:24:26.801Z,4.35
2017-12-16T14:26:54.379Z,3.90
2017-12-16T14:29:22.642Z,4.55
2017-12-16T14:31:50.980Z,4.57
2017-12-16T14:34:18.466Z,4.10
2017-12-16T14:36:46.732Z,3.22
2017-12-16T14:39:14.227Z,4.40
2017-12-16T14:41:41.763Z,4.55
2017-12-16T14:44:09.266Z,4.95
2017-12-16T14:46:36.722Z,4.70
2017-12-16T14:49:04.265Z,4.50
2017-12-16T14:51:31.839Z,4.93
2017-12-16T14:53:59.326Z,5.78
2017-12-16T14:56:26.904Z,8.25
2017-12-16T14:58:54.385Z,6.00
2017-12-16T15:01:21.930Z,5.10
2017-12-16T15:03:50.192Z,8.27
2017-12-16T15:06:17.741Z,6.87
2017-12-16T15:08:45.234Z,5.28
2017-12-16T15:11:13.510Z,4.90
2017-12-16T15:13:41.780Z,5.03
2017-12-16T15:16:10.054Z,4.22
2017-12-16T15:18:38.330Z,4.43
2017-12-16T15:21:05.818Z,5.18
2017-12-16T15:23:33.290Z,4.05
2017-12-16T15:26:00.761Z,4.32
2017-12-16T15:28:28.246Z,4.28
2017-12-16T15:30:56.499Z,4.25
2017-12-16T15:33:24.062Z,4.78
2017-12-16T15:35:51.547Z,3.70
2017-12-16T15:38:20.033Z,3.65
2017-12-16T15:40:48.266Z,3.47
2017-12-16T15:43:15.809Z,4.22
2017-12-16T15:45:43.269Z,3.00
2017-12-16T15:48:10.890Z,3.22
2017-12-16T15:50:38.490Z,2.70
2017-12-16T15:53:06.008Z,2.85
2017-12-16T15:55:33.515Z,2.40
2017-12-16T15:58:01.010Z,2.50
2017-12-16T16:00:29.303Z,3.17
2017-12-16T16:02:57.643Z,3.03
2017-12-16T16:05:25.307Z,2.20
2017-12-16T16:07:52.873Z,2.58
2017-12-16T16:10:20.357Z,2.42
2017-12-16T16:12:48.605Z,2.12
2017-12-16T16:15:16.937Z,2.45
2017-12-16T16:17:44.397Z,2.05
2017-12-16T16:20:11.875Z,2.70
2017-12-16T16:22:39.429Z,2.40
2017-12-16T16:25:06.955Z,2.67
2017-12-16T16:27:34.427Z,2.33
2017-12-16T16:30:01.911Z,2.92
2017-12-16T16:32:29.402Z,3.20
2017-12-16T16:34:56.926Z,3.05
2017-12-16T16:37:24.590Z,3.78
2017-12-16T16:39:52.149Z,3.03
2017-12-16T16:42:19.613Z,2.72
2017-12-16T16:44:47.866Z,3.53
2017-12-16T16:47:15.342Z,2.67
2017-12-16T16:49:42.942Z,2.70
2017-12-16T16:52:10.583Z,2.47
2017-12-16T16:54:39.242Z,2.58
2017-12-16T16:57:06.815Z,2.75
2017-12-16T16:59:34.459Z,2.90
2017-12-16T17:02:01.939Z,2.62
2017-12-16T17:04:30.182Z,2.90
2017-12-16T17:06:57.673Z,2.45
2017-12-16T17:09:25.919Z,2.95
2017-12-16T17:11:53.403Z,2.65
2017-12-16T17:14:21.673Z,2.50
2017-12-16T17:16:50.055Z,2.95
2017-12-16T17:19:18.386Z,2.78
2017-12-16T17:21:45.876Z,2.75
2017-12-16T17:24:13.427Z,2.95
2017-12-16T17:26:40.895Z,2.40
2017-12-16T17:29:08.388Z,2.67
2017-12-16T17:31:35.903Z,2.50
2017-12-16T17:34:03.467Z,2.65
2017-12-16T17:36:30.940Z,2.90
2017-12-16T17:38:59.210Z,2.30
2017-12-16T17:41:26.674Z,2.90
2017-12-16T17:43:54.936Z,3.05
2017-12-16T17:46:23.363Z,2.70
2017-12-16T17:48:51.080Z,3.50
2017-12-16T17:51:19.395Z,2.40
2017-12-16T17:53:47.049Z,3.10
2017-12-16T17:56:14.604Z,3.00
2017-12-16T17:58:42.090Z,3.22
2017-12-16T18:01:09.571Z,3.17
2017-12-16T18:03:37.050Z,3.70
2017-12-16T18:06:05.424Z,3.22
2017-12-16T18:08:33.767Z,2.60
2017-12-16T18:11:01.394Z,3.17
2017-12-16T18:13:28.903Z,2.90
2017-12-16T18:15:56.379Z,2.55
2017-12-16T18:18:24.617Z,2.42
2017-12-16T18:20:52.115Z,2.50
2017-12-16T18:23:20.370Z,2.45
2017-12-16T18:25:47.960Z,2.67
2017-12-16T18:28:16.215Z,2.60
2017-12-16T18:30:44.602Z,2.70
2017-12-16T18:33:12.909Z,2.50
2017-12-16T18:35:40.452Z,2.90
2017-12-16T18:38:08.682Z,2.62
2017-12-16T18:40:36.174Z,2.80
2017-12-16T18:43:03.657Z,4.00
2017-12-16T18:45:31.240Z,2.50
2017-12-16T18:47:59.080Z,3.00
2017-12-16T18:50:26.709Z,2.83
2017-12-16T18:52:55.127Z,3.28
2017-12-16T18:55:22.609Z,3.60
2017-12-16T18:57:50.090Z,3.65
2017-12-16T19:00:18.350Z,3.65
2017-12-16T19:02:45.852Z,2.80
2017-12-16T19:05:13.390Z,3.45
2017-12-16T19:07:41.699Z,2.67
2017-12-16T19:10:09.327Z,2.45
2017-12-16T19:12:37.577Z,2.80
2017-12-16T19:15:05.061Z,2.60
2017-12-16T19:17:33.313Z,3.10
2017-12-16T19:20:00.805Z,2.85
2017-12-16T19:22:29.043Z,3.20
2017-12-16T19:24:56.563Z,3.25
2017-12-16T19:27:24.055Z,2.95
2017-12-16T19:29:51.562Z,4.20
2017-12-16T19:32:19.381Z,3.70
2017-12-16T19:34:46.858Z,3.10
2017-12-16T19:37:15.198Z,2.72
2017-12-16T19:39:42.768Z,3.42
2017-12-16T19:42:10.267Z,2.83
2017-12-16T19:44:37.743Z,3.62
2017-12-16T19:47:05.307Z,3.25
2017-12-16T19:49:32.786Z,4.07
2017-12-16T19:52:00.260Z,3.67
2017-12-16T19:54:27.909Z,3.05
2017-12-16T19:56:55.396Z,3.03
2017-12-16T19:59:23.668Z,2.92
2017-12-16T20:01:51.160Z,3.12
2017-12-16T20:04:18.662Z,3.53
2017-12-16T20:06:46.285Z,2.72
2017-12-16T20:09:13.778Z,2.55
2017-12-16T20:11:41.281Z,2.95
2017-12-16T20:14:08.937Z,3.03
2017-12-16T20:16:36.423Z,3.55
2017-12-16T20:19:03.926Z,2.78
2017-12-16T20:21:31.418Z,3.30
2017-12-16T20:23:58.914Z,3.22
2017-12-16T20:26:26.464Z,3.87
2017-12-16T20:28:53.990Z,2.65
2017-12-16T20:31:31.682Z,2.78
2017-12-16T20:33:59.926Z,2.80
2017-12-16T20:36:27.495Z,3.20
2017-12-16T20:38:55.030Z,3.15
2017-12-16T20:41:22.626Z,2.85
2017-12-16T20:43:51.157Z,2.55
2017-12-16T20:46:18.636Z,2.53
2017-12-16T20:48:46.179Z,2.67
2017-12-16T20:51:13.750Z,2.40
2017-12-16T20:53:41.236Z,3.10
2017-12-16T20:56:09.582Z,2.95
2017-12-16T20:58:37.249Z,2.87
2017-12-16T21:01:04.706Z,3.03
2017-12-16T21:03:32.284Z,2.55
2017-12-16T21:06:00.582Z,2.58
2017-12-16T21:08:28.823Z,2.78
2017-12-16T21:10:56.385Z,2.75
2017-12-16T21:13:23.857Z,2.15
2017-12-16T21:15:52.114Z,2.83
2017-12-16T21:18:19.597Z,2.20
2017-12-16T21:20:47.864Z,2.80
2017-12-16T21:23:16.111Z,2.42
2017-12-16T21:25:43.763Z,3.08
2017-12-16T21:28:11.246Z,2.00
2017-12-16T21:30:39.515Z,2.62
2017-12-16T21:33:07.116Z,2.15
2017-12-16T21:35:34.614Z,2.60
2017-12-16T21:38:03.618Z,2.80
2017-12-16T21:40:31.263Z,2.65
2017-12-16T21:42:58.795Z,2.20
2017-12-16T21:45:26.403Z,2.80
2017-12-16T21:47:55.449Z,2.30
2017-12-16T21:50:22.985Z,2.40
2017-12-16T21:52:51.239Z,2.62
2017-12-16T21:55:18.718Z,3.05
2017-12-16T21:57:46.219Z,2.40
2017-12-16T22:00:13.703Z,2.08
2017-12-16T22:02:42.047Z,2.50
2017-12-16T22:05:09.534Z,2.35
2017-12-16T22:07:37.003Z,2.97
2017-12-16T22:10:04.584Z,2.30
2017-12-16T22:12:32.923Z,2.37
2017-12-16T22:15:00.429Z,2.10
2017-12-16T22:17:27.946Z,2.28
2017-12-16T22:19:56.205Z,2.40
2017-12-16T22:22:23.676Z,2.50
2017-12-16T22:24:51.160Z,2.17
2017-12-16T22:27:18.638Z,2.20
2017-12-16T22:29:46.255Z,2.15
2017-12-16T22:32:14.735Z,2.15
2017-12-16T22:34:42.432Z,2.25
2017-12-16T22:37:09.924Z,2.35
2017-12-16T22:39:37.392Z,2.30
2017-12-16T22:42:04.957Z,2.20
2017-12-16T22:44:32.437Z,2.53
2017-12-16T22:47:00.715Z,2.20
2017-12-16T22:49:38.878Z,2.50
2017-12-16T22:52:06.362Z,2.20
2017-12-16T22:54:34.630Z,2.17
2017-12-16T22:57:02.407Z,2.30
2017-12-16T22:59:31.088Z,2.72
2017-12-16T23:01:58.993Z,2.78
2017-12-16T23:04:26.587Z,2.30
2017-12-16T23:06:54.252Z,2.10
2017-12-16T23:09:22.528Z,2.47
2017-12-16T23:11:50.026Z,2.00
2017-12-16T23:14:18.349Z,2.65
2017-12-16T23:16:45.839Z,2.08
2017-12-16T23:19:13.382Z,1.85
2017-12-16T23:21:40.947Z,2.00
2017-12-16T23:24:08.458Z,2.35
2017-12-16T23:26:35.959Z,2.25
2017-12-16T23:29:03.439Z,2.08
2017-12-16T23:31:31.698Z,2.40
2017-12-16T23:33:59.164Z,2.22
2017-12-16T23:36:27.525Z,2.45
2017-12-16T23:38:55.137Z,1.90
2017-12-16T23:41:22.812Z,2.10
2017-12-16T23:43:50.360Z,2.10
2017-12-16T23:46:17.826Z,2.15
2017-12-16T23:48:45.306Z,2.33
2017-12-16T23:51:12.777Z,2.10
2017-12-16T23:53:40.350Z,2.00
2017-12-16T23:56:08.637Z,2.00
2017-12-16T23:58:37.575Z,2.00
